sensor_id;sensor_type;location;lat;lon;timestamp;P1;durP1;ratioP1;P2;durP2;ratioP2
63259;SDS011;49390;51.380;0.098;2023-02-28T00:01:28;6.72;;;3.00;;
63259;SDS011;49390;51.380;0.098;2023-02-28T00:03:57;5.95;;;3.05;;
63259;SDS011;49390;51.380;0.098;2023-02-28T00:06:26;6.57;;;3.10;;
63259;SDS011;49390;51.380;0.098;2023-02-28T00:08:53;9.75;;;3.65;;
63259;SDS011;49390;51.380;0.098;2023-02-28T00:11:22;7.55;;;3.40;;
63259;SDS011;49390;51.380;0.098;2023-02-28T00:13:50;10.40;;;3.13;;
63259;SDS011;49390;51.380;0.098;2023-02-28T00:16:19;7.15;;;3.88;;
63259;SDS011;49390;51.380;0.098;2023-02-28T00:18:49;9.60;;;3.58;;
63259;SDS011;49390;51.380;0.098;2023-02-28T00:21:18;6.20;;;3.15;;
63259;SDS011;49390;51.380;0.098;2023-02-28T00:23:47;12.10;;;3.80;;
63259;SDS011;49390;51.380;0.098;2023-02-28T00:26:15;9.30;;;3.50;;
63259;SDS011;49390;51.380;0.098;2023-02-28T00:28:45;7.10;;;3.33;;
63259;SDS011;49390;51.380;0.098;2023-02-28T00:31:13;10.15;;;4.07;;
63259;SDS011;49390;51.380;0.098;2023-02-28T00:33:41;9.55;;;3.78;;
63259;SDS011;49390;51.380;0.098;2023-02-28T00:36:10;7.82;;;3.40;;
63259;SDS011;49390;51.380;0.098;2023-02-28T00:38:39;5.55;;;3.28;;
63259;SDS011;49390;51.380;0.098;2023-02-28T00:41:08;9.20;;;3.22;;
63259;SDS011;49390;51.380;0.098;2023-02-28T00:43:37;6.70;;;3.40;;
63259;SDS011;49390;51.380;0.098;2023-02-28T00:46:05;7.78;;;3.20;;
63259;SDS011;49390;51.380;0.098;2023-02-28T00:48:34;6.28;;;3.03;;
63259;SDS011;49390;51.380;0.098;2023-02-28T00:51:03;5.88;;;3.10;;
63259;SDS011;49390;51.380;0.098;2023-02-28T00:53:31;7.40;;;3.30;;
63259;SDS011;49390;51.380;0.098;2023-02-28T00:56:00;6.65;;;3.33;;
63259;SDS011;49390;51.380;0.098;2023-02-28T00:58:28;7.55;;;3.58;;
63259;SDS011;49390;51.380;0.098;2023-02-28T01:00:57;7.13;;;3.10;;
63259;SDS011;49390;51.380;0.098;2023-02-28T01:03:24;9.00;;;3.38;;
63259;SDS011;49390;51.380;0.098;2023-02-28T01:05:53;6.07;;;3.00;;
63259;SDS011;49390;51.380;0.098;2023-02-28T01:08:23;7.88;;;2.95;;
63259;SDS011;49390;51.380;0.098;2023-02-28T01:10:51;8.20;;;3.50;;
63259;SDS011;49390;51.380;0.098;2023-02-28T01:13:19;6.45;;;3.30;;
63259;SDS011;49390;51.380;0.098;2023-02-28T01:15:51;8.98;;;3.45;;
63259;SDS011;49390;51.380;0.098;2023-02-28T01:18:22;8.00;;;3.17;;
63259;SDS011;49390;51.380;0.098;2023-02-28T01:20:51;11.32;;;4.18;;
63259;SDS011;49390;51.380;0.098;2023-02-28T01:23:20;9.57;;;3.33;;
63259;SDS011;49390;51.380;0.098;2023-02-28T01:25:51;9.52;;;3.35;;
63259;SDS011;49390;51.380;0.098;2023-02-28T01:28:19;8.85;;;3.38;;
63259;SDS011;49390;51.380;0.098;2023-02-28T01:30:48;5.70;;;3.42;;
63259;SDS011;49390;51.380;0.098;2023-02-28T01:33:17;12.05;;;3.60;;
63259;SDS011;49390;51.380;0.098;2023-02-28T01:35:45;8.23;;;3.60;;
63259;SDS011;49390;51.380;0.098;2023-02-28T01:38:13;10.23;;;3.70;;
63259;SDS011;49390;51.380;0.098;2023-02-28T01:40:49;7.57;;;3.70;;
63259;SDS011;49390;51.380;0.098;2023-02-28T01:43:22;7.43;;;3.90;;
63259;SDS011;49390;51.380;0.098;2023-02-28T01:46:10;9.32;;;3.75;;
63259;SDS011;49390;51.380;0.098;2023-02-28T01:48:46;11.43;;;3.85;;
63259;SDS011;49390;51.380;0.098;2023-02-28T01:51:24;9.25;;;3.78;;
63259;SDS011;49390;51.380;0.098;2023-02-28T01:54:00;8.73;;;3.75;;
63259;SDS011;49390;51.380;0.098;2023-02-28T01:56:43;8.73;;;4.20;;
63259;SDS011;49390;51.380;0.098;2023-02-28T01:59:18;8.45;;;3.75;;
63259;SDS011;49390;51.380;0.098;2023-02-28T02:01:50;8.88;;;3.88;;
63259;SDS011;49390;51.380;0.098;2023-02-28T02:04:18;8.02;;;3.75;;
63259;SDS011;49390;51.380;0.098;2023-02-28T02:06:48;9.80;;;3.88;;
63259;SDS011;49390;51.380;0.098;2023-02-28T02:09:16;9.52;;;3.75;;
63259;SDS011;49390;51.380;0.098;2023-02-28T02:11:45;8.75;;;4.03;;
63259;SDS011;49390;51.380;0.098;2023-02-28T02:17:22;11.48;;;4.60;;
63259;SDS011;49390;51.380;0.098;2023-02-28T02:42:45;9.85;;;4.43;;
63259;SDS011;49390;51.380;0.098;2023-02-28T02:45:22;7.90;;;3.67;;
63259;SDS011;49390;51.380;0.098;2023-02-28T02:47:55;14.05;;;4.20;;
63259;SDS011;49390;51.380;0.098;2023-02-28T02:50:28;8.63;;;4.05;;
63259;SDS011;49390;51.380;0.098;2023-02-28T02:53:01;9.48;;;3.97;;
63259;SDS011;49390;51.380;0.098;2023-02-28T02:55:33;10.90;;;3.90;;
63259;SDS011;49390;51.380;0.098;2023-02-28T02:58:07;11.60;;;4.03;;
63259;SDS011;49390;51.380;0.098;2023-02-28T03:00:41;7.45;;;3.38;;
63259;SDS011;49390;51.380;0.098;2023-02-28T03:03:12;15.27;;;3.97;;
63259;SDS011;49390;51.380;0.098;2023-02-28T03:05:42;9.43;;;3.97;;
63259;SDS011;49390;51.380;0.098;2023-02-28T03:08:14;7.72;;;3.40;;
63259;SDS011;49390;51.380;0.098;2023-02-28T03:10:43;9.10;;;3.50;;
63259;SDS011;49390;51.380;0.098;2023-02-28T03:18:32;10.65;;;3.65;;
63259;SDS011;49390;51.380;0.098;2023-02-28T03:21:27;9.32;;;3.30;;
63259;SDS011;49390;51.380;0.098;2023-02-28T03:24:24;10.32;;;3.40;;
63259;SDS011;49390;51.380;0.098;2023-02-28T03:30:23;10.65;;;3.58;;
63259;SDS011;49390;51.380;0.098;2023-02-28T03:33:18;10.63;;;3.78;;
63259;SDS011;49390;51.380;0.098;2023-02-28T03:35:52;11.45;;;3.25;;
63259;SDS011;49390;51.380;0.098;2023-02-28T03:38:33;7.25;;;3.47;;
63259;SDS011;49390;51.380;0.098;2023-02-28T03:41:12;6.90;;;3.17;;
63259;SDS011;49390;51.380;0.098;2023-02-28T03:43:58;6.93;;;3.45;;
63259;SDS011;49390;51.380;0.098;2023-02-28T03:46:32;9.98;;;3.38;;
63259;SDS011;49390;51.380;0.098;2023-02-28T03:49:07;8.20;;;3.53;;
63259;SDS011;49390;51.380;0.098;2023-02-28T03:51:42;8.00;;;3.08;;
63259;SDS011;49390;51.380;0.098;2023-02-28T03:54:15;7.43;;;3.20;;
63259;SDS011;49390;51.380;0.098;2023-02-28T03:56:51;8.35;;;3.30;;
63259;SDS011;49390;51.380;0.098;2023-02-28T03:59:28;7.82;;;3.40;;
63259;SDS011;49390;51.380;0.098;2023-02-28T04:02:01;8.57;;;3.05;;
63259;SDS011;49390;51.380;0.098;2023-02-28T04:04:30;8.05;;;3.38;;
63259;SDS011;49390;51.380;0.098;2023-02-28T04:07:03;10.30;;;3.17;;
63259;SDS011;49390;51.380;0.098;2023-02-28T04:09:33;8.00;;;3.55;;
63259;SDS011;49390;51.380;0.098;2023-02-28T04:12:02;8.35;;;3.22;;
63259;SDS011;49390;51.380;0.098;2023-02-28T04:14:30;8.85;;;3.55;;
63259;SDS011;49390;51.380;0.098;2023-02-28T04:16:58;8.63;;;3.35;;
63259;SDS011;49390;51.380;0.098;2023-02-28T04:19:26;7.90;;;3.30;;
63259;SDS011;49390;51.380;0.098;2023-02-28T04:21:54;7.70;;;2.95;;
63259;SDS011;49390;51.380;0.098;2023-02-28T04:24:23;7.75;;;3.30;;
63259;SDS011;49390;51.380;0.098;2023-02-28T04:26:54;8.25;;;3.40;;
63259;SDS011;49390;51.380;0.098;2023-02-28T04:29:27;5.43;;;3.40;;
63259;SDS011;49390;51.380;0.098;2023-02-28T04:32:02;8.93;;;3.15;;
63259;SDS011;49390;51.380;0.098;2023-02-28T04:34:31;5.78;;;3.20;;
63259;SDS011;49390;51.380;0.098;2023-02-28T04:37:00;8.52;;;3.38;;
63259;SDS011;49390;51.380;0.098;2023-02-28T04:39:43;8.88;;;3.40;;
63259;SDS011;49390;51.380;0.098;2023-02-28T04:42:11;10.85;;;3.53;;
63259;SDS011;49390;51.380;0.098;2023-02-28T04:44:40;8.57;;;3.33;;
63259;SDS011;49390;51.380;0.098;2023-02-28T04:47:08;7.38;;;3.10;;
63259;SDS011;49390;51.380;0.098;2023-02-28T04:49:37;10.45;;;3.47;;
63259;SDS011;49390;51.380;0.098;2023-02-28T04:52:05;10.68;;;3.40;;
63259;SDS011;49390;51.380;0.098;2023-02-28T04:54:34;9.05;;;3.60;;
63259;SDS011;49390;51.380;0.098;2023-02-28T04:57:02;10.93;;;3.30;;
63259;SDS011;49390;51.380;0.098;2023-02-28T04:59:31;10.70;;;3.97;;
63259;SDS011;49390;51.380;0.098;2023-02-28T05:01:59;9.02;;;3.25;;
63259;SDS011;49390;51.380;0.098;2023-02-28T05:04:34;9.98;;;3.35;;
63259;SDS011;49390;51.380;0.098;2023-02-28T05:07:02;8.00;;;3.15;;
63259;SDS011;49390;51.380;0.098;2023-02-28T05:09:31;10.98;;;3.35;;
63259;SDS011;49390;51.380;0.098;2023-02-28T05:12:00;10.35;;;3.30;;
63259;SDS011;49390;51.380;0.098;2023-02-28T05:14:28;8.45;;;3.30;;
63259;SDS011;49390;51.380;0.098;2023-02-28T05:16:55;8.77;;;3.55;;
63259;SDS011;49390;51.380;0.098;2023-02-28T05:19:23;7.57;;;3.50;;
63259;SDS011;49390;51.380;0.098;2023-02-28T05:21:54;11.88;;;3.72;;
63259;SDS011;49390;51.380;0.098;2023-02-28T05:24:22;8.73;;;3.25;;
63259;SDS011;49390;51.380;0.098;2023-02-28T05:26:50;7.32;;;3.45;;
63259;SDS011;49390;51.380;0.098;2023-02-28T05:29:21;9.33;;;3.17;;
63259;SDS011;49390;51.380;0.098;2023-02-28T05:31:48;6.95;;;3.55;;
63259;SDS011;49390;51.380;0.098;2023-02-28T05:34:17;8.13;;;3.38;;
63259;SDS011;49390;51.380;0.098;2023-02-28T05:36:45;10.20;;;4.13;;
63259;SDS011;49390;51.380;0.098;2023-02-28T05:39:13;8.38;;;3.50;;
63259;SDS011;49390;51.380;0.098;2023-02-28T05:41:42;10.43;;;3.58;;
63259;SDS011;49390;51.380;0.098;2023-02-28T05:44:11;8.45;;;3.75;;
63259;SDS011;49390;51.380;0.098;2023-02-28T05:46:39;9.63;;;3.88;;
63259;SDS011;49390;51.380;0.098;2023-02-28T05:49:07;8.35;;;3.58;;
63259;SDS011;49390;51.380;0.098;2023-02-28T05:51:37;7.95;;;3.90;;
63259;SDS011;49390;51.380;0.098;2023-02-28T05:54:07;10.85;;;3.97;;
63259;SDS011;49390;51.380;0.098;2023-02-28T05:56:35;8.23;;;3.28;;
63259;SDS011;49390;51.380;0.098;2023-02-28T05:59:06;8.32;;;3.97;;
63259;SDS011;49390;51.380;0.098;2023-02-28T06:01:38;8.68;;;4.18;;
63259;SDS011;49390;51.380;0.098;2023-02-28T06:04:08;6.63;;;3.90;;
63259;SDS011;49390;51.380;0.098;2023-02-28T06:06:55;12.77;;;4.10;;
63259;SDS011;49390;51.380;0.098;2023-02-28T06:09:27;10.18;;;4.72;;
63259;SDS011;49390;51.380;0.098;2023-02-28T06:11:57;8.95;;;4.28;;
63259;SDS011;49390;51.380;0.098;2023-02-28T06:14:31;13.85;;;4.50;;
63259;SDS011;49390;51.380;0.098;2023-02-28T06:17:00;9.63;;;4.70;;
63259;SDS011;49390;51.380;0.098;2023-02-28T06:19:31;8.43;;;4.38;;
63259;SDS011;49390;51.380;0.098;2023-02-28T06:21:59;10.70;;;4.78;;
63259;SDS011;49390;51.380;0.098;2023-02-28T06:24:27;11.27;;;4.97;;
63259;SDS011;49390;51.380;0.098;2023-02-28T06:26:55;10.57;;;5.55;;
63259;SDS011;49390;51.380;0.098;2023-02-28T06:29:24;8.88;;;4.70;;
63259;SDS011;49390;51.380;0.098;2023-02-28T06:31:52;9.75;;;4.97;;
63259;SDS011;49390;51.380;0.098;2023-02-28T06:34:20;8.63;;;4.88;;
63259;SDS011;49390;51.380;0.098;2023-02-28T06:36:51;10.55;;;4.85;;
63259;SDS011;49390;51.380;0.098;2023-02-28T06:39:20;9.65;;;5.32;;
63259;SDS011;49390;51.380;0.098;2023-02-28T06:41:50;9.57;;;4.80;;
63259;SDS011;49390;51.380;0.098;2023-02-28T06:46:45;13.38;;;5.60;;
63259;SDS011;49390;51.380;0.098;2023-02-28T06:49:14;10.13;;;4.97;;
63259;SDS011;49390;51.380;0.098;2023-02-28T06:51:43;13.95;;;6.38;;
63259;SDS011;49390;51.380;0.098;2023-02-28T06:54:14;13.45;;;4.93;;
63259;SDS011;49390;51.380;0.098;2023-02-28T06:56:42;9.23;;;5.13;;
63259;SDS011;49390;51.380;0.098;2023-02-28T06:59:10;8.85;;;4.90;;
63259;SDS011;49390;51.380;0.098;2023-02-28T07:01:38;10.13;;;4.82;;
63259;SDS011;49390;51.380;0.098;2023-02-28T07:04:07;11.98;;;5.63;;
63259;SDS011;49390;51.380;0.098;2023-02-28T07:06:35;11.90;;;5.00;;
63259;SDS011;49390;51.380;0.098;2023-02-28T07:09:03;11.30;;;5.07;;
63259;SDS011;49390;51.380;0.098;2023-02-28T07:11:31;12.23;;;5.72;;
63259;SDS011;49390;51.380;0.098;2023-02-28T07:13:59;10.75;;;5.45;;
63259;SDS011;49390;51.380;0.098;2023-02-28T07:16:27;9.93;;;4.80;;
63259;SDS011;49390;51.380;0.098;2023-02-28T07:18:56;10.23;;;5.07;;
63259;SDS011;49390;51.380;0.098;2023-02-28T07:21:24;11.13;;;5.13;;
63259;SDS011;49390;51.380;0.098;2023-02-28T07:23:55;9.63;;;5.90;;
63259;SDS011;49390;51.380;0.098;2023-02-28T07:26:24;14.95;;;5.60;;
63259;SDS011;49390;51.380;0.098;2023-02-28T07:28:52;9.82;;;5.20;;
63259;SDS011;49390;51.380;0.098;2023-02-28T07:31:20;13.00;;;5.50;;
63259;SDS011;49390;51.380;0.098;2023-02-28T07:33:48;11.50;;;5.30;;
63259;SDS011;49390;51.380;0.098;2023-02-28T07:36:16;11.65;;;5.80;;
63259;SDS011;49390;51.380;0.098;2023-02-28T07:38:46;11.30;;;5.38;;
63259;SDS011;49390;51.380;0.098;2023-02-28T07:41:18;10.85;;;5.93;;
63259;SDS011;49390;51.380;0.098;2023-02-28T07:43:47;10.93;;;5.60;;
63259;SDS011;49390;51.380;0.098;2023-02-28T07:46:15;9.98;;;5.25;;
63259;SDS011;49390;51.380;0.098;2023-02-28T07:48:45;10.57;;;5.88;;
63259;SDS011;49390;51.380;0.098;2023-02-28T07:51:12;10.88;;;5.50;;
63259;SDS011;49390;51.380;0.098;2023-02-28T07:53:41;12.82;;;5.60;;
63259;SDS011;49390;51.380;0.098;2023-02-28T07:56:08;11.13;;;5.43;;
63259;SDS011;49390;51.380;0.098;2023-02-28T07:58:38;11.75;;;5.28;;
63259;SDS011;49390;51.380;0.098;2023-02-28T08:01:09;10.65;;;5.25;;
63259;SDS011;49390;51.380;0.098;2023-02-28T08:03:39;10.90;;;5.45;;
63259;SDS011;49390;51.380;0.098;2023-02-28T08:06:07;12.13;;;5.22;;
63259;SDS011;49390;51.380;0.098;2023-02-28T08:08:42;10.35;;;5.25;;
63259;SDS011;49390;51.380;0.098;2023-02-28T08:11:11;9.70;;;5.55;;
63259;SDS011;49390;51.380;0.098;2023-02-28T08:13:39;10.98;;;5.70;;
63259;SDS011;49390;51.380;0.098;2023-02-28T08:16:09;8.95;;;5.28;;
63259;SDS011;49390;51.380;0.098;2023-02-28T08:18:38;12.27;;;4.97;;
63259;SDS011;49390;51.380;0.098;2023-02-28T08:21:07;12.15;;;5.13;;
63259;SDS011;49390;51.380;0.098;2023-02-28T08:23:36;11.43;;;5.13;;
63259;SDS011;49390;51.380;0.098;2023-02-28T08:26:03;8.35;;;4.32;;
63259;SDS011;49390;51.380;0.098;2023-02-28T08:28:32;8.93;;;4.38;;
63259;SDS011;49390;51.380;0.098;2023-02-28T08:31:00;9.75;;;4.82;;
63259;SDS011;49390;51.380;0.098;2023-02-28T08:33:28;13.43;;;4.53;;
63259;SDS011;49390;51.380;0.098;2023-02-28T08:35:56;11.20;;;5.15;;
63259;SDS011;49390;51.380;0.098;2023-02-28T08:38:24;8.85;;;4.68;;
63259;SDS011;49390;51.380;0.098;2023-02-28T08:40:58;9.77;;;4.75;;
63259;SDS011;49390;51.380;0.098;2023-02-28T08:43:33;9.88;;;4.40;;
63259;SDS011;49390;51.380;0.098;2023-02-28T08:46:02;8.52;;;4.07;;
63259;SDS011;49390;51.380;0.098;2023-02-28T08:48:31;10.27;;;4.63;;
63259;SDS011;49390;51.380;0.098;2023-02-28T08:51:01;8.10;;;4.43;;
63259;SDS011;49390;51.380;0.098;2023-02-28T08:53:38;7.53;;;3.60;;
63259;SDS011;49390;51.380;0.098;2023-02-28T08:56:13;12.23;;;4.20;;
63259;SDS011;49390;51.380;0.098;2023-02-28T08:58:44;9.20;;;4.65;;
63259;SDS011;49390;51.380;0.098;2023-02-28T09:01:14;9.25;;;4.40;;
63259;SDS011;49390;51.380;0.098;2023-02-28T09:03:48;7.90;;;4.05;;
63259;SDS011;49390;51.380;0.098;2023-02-28T09:06:17;9.05;;;3.67;;
63259;SDS011;49390;51.380;0.098;2023-02-28T09:08:47;6.32;;;3.28;;
63259;SDS011;49390;51.380;0.098;2023-02-28T09:11:15;7.35;;;3.60;;
63259;SDS011;49390;51.380;0.098;2023-02-28T09:13:44;6.90;;;3.72;;
63259;SDS011;49390;51.380;0.098;2023-02-28T09:16:13;8.20;;;3.80;;
63259;SDS011;49390;51.380;0.098;2023-02-28T09:18:43;9.90;;;4.13;;
63259;SDS011;49390;51.380;0.098;2023-02-28T09:21:12;6.93;;;3.60;;
63259;SDS011;49390;51.380;0.098;2023-02-28T09:23:43;7.25;;;3.50;;
63259;SDS011;49390;51.380;0.098;2023-02-28T09:26:13;9.00;;;2.85;;
63259;SDS011;49390;51.380;0.098;2023-02-28T09:28:42;8.75;;;3.55;;
63259;SDS011;49390;51.380;0.098;2023-02-28T09:31:18;7.03;;;2.88;;
63259;SDS011;49390;51.380;0.098;2023-02-28T09:33:52;7.30;;;3.28;;
63259;SDS011;49390;51.380;0.098;2023-02-28T09:36:21;4.75;;;2.80;;
63259;SDS011;49390;51.380;0.098;2023-02-28T09:39:00;6.22;;;2.90;;
63259;SDS011;49390;51.380;0.098;2023-02-28T09:41:29;4.07;;;2.58;;
63259;SDS011;49390;51.380;0.098;2023-02-28T09:44:10;7.60;;;3.40;;
63259;SDS011;49390;51.380;0.098;2023-02-28T09:46:48;7.80;;;3.65;;
63259;SDS011;49390;51.380;0.098;2023-02-28T09:49:22;7.93;;;3.22;;
63259;SDS011;49390;51.380;0.098;2023-02-28T09:51:57;5.82;;;2.95;;
63259;SDS011;49390;51.380;0.098;2023-02-28T09:54:30;6.78;;;2.80;;
63259;SDS011;49390;51.380;0.098;2023-02-28T09:59:53;5.78;;;3.22;;
63259;SDS011;49390;51.380;0.098;2023-02-28T10:04:59;6.72;;;3.70;;
63259;SDS011;49390;51.380;0.098;2023-02-28T10:12:56;8.18;;;4.15;;
63259;SDS011;49390;51.380;0.098;2023-02-28T10:15:29;7.85;;;3.88;;
63259;SDS011;49390;51.380;0.098;2023-02-28T10:18:00;7.82;;;3.90;;
63259;SDS011;49390;51.380;0.098;2023-02-28T10:20:39;11.13;;;4.20;;
63259;SDS011;49390;51.380;0.098;2023-02-28T10:25:50;8.45;;;4.05;;
63259;SDS011;49390;51.380;0.098;2023-02-28T10:28:22;7.63;;;3.92;;
63259;SDS011;49390;51.380;0.098;2023-02-28T10:30:53;11.17;;;4.13;;
63259;SDS011;49390;51.380;0.098;2023-02-28T10:33:23;7.93;;;4.15;;
63259;SDS011;49390;51.380;0.098;2023-02-28T10:35:55;8.32;;;4.38;;
63259;SDS011;49390;51.380;0.098;2023-02-28T10:38:25;6.93;;;3.72;;
63259;SDS011;49390;51.380;0.098;2023-02-28T10:48:33;6.40;;;3.25;;
63259;SDS011;49390;51.380;0.098;2023-02-28T10:53:54;4.97;;;2.47;;
63259;SDS011;49390;51.380;0.098;2023-02-28T10:56:30;6.30;;;2.50;;
63259;SDS011;49390;51.380;0.098;2023-02-28T10:59:00;4.57;;;2.53;;
63259;SDS011;49390;51.380;0.098;2023-02-28T11:01:42;6.78;;;2.88;;
63259;SDS011;49390;51.380;0.098;2023-02-28T11:04:23;7.67;;;2.43;;
63259;SDS011;49390;51.380;0.098;2023-02-28T11:07:22;5.35;;;2.58;;
63259;SDS011;49390;51.380;0.098;2023-02-28T11:09:57;5.40;;;2.70;;
63259;SDS011;49390;51.380;0.098;2023-02-28T11:12:26;5.53;;;2.35;;
63259;SDS011;49390;51.380;0.098;2023-02-28T11:15:24;4.32;;;2.15;;
63259;SDS011;49390;51.380;0.098;2023-02-28T11:20:49;5.57;;;2.40;;
63259;SDS011;49390;51.380;0.098;2023-02-28T11:23:20;5.57;;;2.72;;
63259;SDS011;49390;51.380;0.098;2023-02-28T11:25:54;4.80;;;2.20;;
63259;SDS011;49390;51.380;0.098;2023-02-28T11:28:31;6.28;;;2.35;;
63259;SDS011;49390;51.380;0.098;2023-02-28T11:31:19;4.60;;;2.40;;
63259;SDS011;49390;51.380;0.098;2023-02-28T11:33:50;4.50;;;2.28;;
63259;SDS011;49390;51.380;0.098;2023-02-28T11:36:21;5.65;;;2.83;;
63259;SDS011;49390;51.380;0.098;2023-02-28T11:38:55;5.63;;;3.00;;
63259;SDS011;49390;51.380;0.098;2023-02-28T11:44:24;6.47;;;3.40;;
63259;SDS011;49390;51.380;0.098;2023-02-28T11:47:07;5.03;;;2.70;;
63259;SDS011;49390;51.380;0.098;2023-02-28T12:04:21;7.40;;;3.67;;
63259;SDS011;49390;51.380;0.098;2023-02-28T12:18:12;7.63;;;2.95;;
63259;SDS011;49390;51.380;0.098;2023-02-28T12:20:47;5.57;;;2.80;;
63259;SDS011;49390;51.380;0.098;2023-02-28T12:26:16;20.27;;;4.53;;
63259;SDS011;49390;51.380;0.098;2023-02-28T12:28:49;7.03;;;3.47;;
63259;SDS011;49390;51.380;0.098;2023-02-28T12:31:24;7.88;;;3.65;;
63259;SDS011;49390;51.380;0.098;2023-02-28T12:33:59;8.48;;;4.53;;
63259;SDS011;49390;51.380;0.098;2023-02-28T12:36:33;6.50;;;3.60;;
63259;SDS011;49390;51.380;0.098;2023-02-28T12:39:04;7.00;;;3.75;;
63259;SDS011;49390;51.380;0.098;2023-02-28T12:41:40;6.90;;;3.60;;
63259;SDS011;49390;51.380;0.098;2023-02-28T12:44:18;7.35;;;3.90;;
63259;SDS011;49390;51.380;0.098;2023-02-28T12:46:52;7.20;;;3.80;;
63259;SDS011;49390;51.380;0.098;2023-02-28T12:52:10;7.32;;;3.50;;
63259;SDS011;49390;51.380;0.098;2023-02-28T12:54:49;7.20;;;4.00;;
63259;SDS011;49390;51.380;0.098;2023-02-28T12:57:35;6.53;;;3.13;;
63259;SDS011;49390;51.380;0.098;2023-02-28T13:00:13;6.57;;;3.20;;
63259;SDS011;49390;51.380;0.098;2023-02-28T13:08:24;10.40;;;4.78;;
63259;SDS011;49390;51.380;0.098;2023-02-28T13:11:23;8.93;;;3.85;;
63259;SDS011;49390;51.380;0.098;2023-02-28T13:14:20;5.63;;;2.65;;
63259;SDS011;49390;51.380;0.098;2023-02-28T13:19:26;8.75;;;4.03;;
63259;SDS011;49390;51.380;0.098;2023-02-28T13:29:38;6.97;;;3.83;;
63259;SDS011;49390;51.380;0.098;2023-02-28T13:39:47;8.40;;;4.25;;
63259;SDS011;49390;51.380;0.098;2023-02-28T13:47:41;6.22;;;3.78;;
63259;SDS011;49390;51.380;0.098;2023-02-28T13:55:37;6.68;;;3.78;;
63259;SDS011;49390;51.380;0.098;2023-02-28T14:01:09;8.65;;;3.55;;
63259;SDS011;49390;51.380;0.098;2023-02-28T14:06:33;5.78;;;2.78;;
63259;SDS011;49390;51.380;0.098;2023-02-28T14:11:43;5.70;;;2.63;;
63259;SDS011;49390;51.380;0.098;2023-02-28T14:17:02;5.43;;;2.47;;
63259;SDS011;49390;51.380;0.098;2023-02-28T14:19:32;6.85;;;2.90;;
63259;SDS011;49390;51.380;0.098;2023-02-28T14:25:15;4.80;;;2.47;;
63259;SDS011;49390;51.380;0.098;2023-02-28T14:28:27;3.58;;;1.98;;
63259;SDS011;49390;51.380;0.098;2023-02-28T14:31:13;4.35;;;2.58;;
63259;SDS011;49390;51.380;0.098;2023-02-28T14:34:12;8.93;;;2.65;;
63259;SDS011;49390;51.380;0.098;2023-02-28T14:37:00;4.70;;;2.20;;
63259;SDS011;49390;51.380;0.098;2023-02-28T14:39:30;4.85;;;2.85;;
63259;SDS011;49390;51.380;0.098;2023-02-28T14:42:00;5.05;;;2.50;;
63259;SDS011;49390;51.380;0.098;2023-02-28T14:44:32;6.22;;;3.05;;
63259;SDS011;49390;51.380;0.098;2023-02-28T14:47:00;7.18;;;2.90;;
63259;SDS011;49390;51.380;0.098;2023-02-28T14:49:36;4.13;;;2.55;;
63259;SDS011;49390;51.380;0.098;2023-02-28T14:54:37;4.15;;;2.05;;
63259;SDS011;49390;51.380;0.098;2023-02-28T14:57:06;5.68;;;2.50;;
63259;SDS011;49390;51.380;0.098;2023-02-28T14:59:56;5.57;;;2.45;;
63259;SDS011;49390;51.380;0.098;2023-02-28T15:02:29;4.68;;;2.55;;
63259;SDS011;49390;51.380;0.098;2023-02-28T15:05:02;5.68;;;2.28;;
63259;SDS011;49390;51.380;0.098;2023-02-28T15:07:48;6.20;;;2.47;;
63259;SDS011;49390;51.380;0.098;2023-02-28T15:10:27;4.55;;;2.38;;
63259;SDS011;49390;51.380;0.098;2023-02-28T15:12:57;4.63;;;2.50;;
63259;SDS011;49390;51.380;0.098;2023-02-28T15:15:46;3.30;;;1.98;;
63259;SDS011;49390;51.380;0.098;2023-02-28T15:21:25;4.97;;;2.70;;
63259;SDS011;49390;51.380;0.098;2023-02-28T15:23:56;4.40;;;2.40;;
63259;SDS011;49390;51.380;0.098;2023-02-28T15:26:30;4.50;;;2.40;;
63259;SDS011;49390;51.380;0.098;2023-02-28T15:29:12;3.97;;;2.05;;
63259;SDS011;49390;51.380;0.098;2023-02-28T15:31:57;3.75;;;1.90;;
63259;SDS011;49390;51.380;0.098;2023-02-28T15:34:42;3.88;;;2.08;;
63259;SDS011;49390;51.380;0.098;2023-02-28T15:37:33;3.38;;;1.75;;
63259;SDS011;49390;51.380;0.098;2023-02-28T15:40:14;4.38;;;2.13;;
63259;SDS011;49390;51.380;0.098;2023-02-28T15:48:11;3.80;;;2.10;;
63259;SDS011;49390;51.380;0.098;2023-02-28T15:50:43;3.80;;;1.90;;
63259;SDS011;49390;51.380;0.098;2023-02-28T15:53:15;4.90;;;2.10;;
63259;SDS011;49390;51.380;0.098;2023-02-28T15:55:54;5.28;;;2.65;;
63259;SDS011;49390;51.380;0.098;2023-02-28T15:58:25;7.50;;;2.60;;
63259;SDS011;49390;51.380;0.098;2023-02-28T16:01:04;4.22;;;2.40;;
63259;SDS011;49390;51.380;0.098;2023-02-28T16:03:38;4.22;;;2.17;;
63259;SDS011;49390;51.380;0.098;2023-02-28T16:08:44;3.88;;;2.20;;
63259;SDS011;49390;51.380;0.098;2023-02-28T16:11:12;3.78;;;2.30;;
63259;SDS011;49390;51.380;0.098;2023-02-28T16:13:40;6.10;;;2.58;;
63259;SDS011;49390;51.380;0.098;2023-02-28T16:16:08;5.50;;;2.50;;
63259;SDS011;49390;51.380;0.098;2023-02-28T16:18:42;3.88;;;2.20;;
63259;SDS011;49390;51.380;0.098;2023-02-28T16:21:10;3.78;;;2.30;;
63259;SDS011;49390;51.380;0.098;2023-02-28T16:23:38;5.97;;;2.50;;
63259;SDS011;49390;51.380;0.098;2023-02-28T16:26:07;4.25;;;2.50;;
63259;SDS011;49390;51.380;0.098;2023-02-28T16:28:41;4.28;;;2.22;;
63259;SDS011;49390;51.380;0.098;2023-02-28T16:31:11;5.53;;;2.58;;
63259;SDS011;49390;51.380;0.098;2023-02-28T16:33:44;6.10;;;2.60;;
63259;SDS011;49390;51.380;0.098;2023-02-28T16:38:44;5.03;;;2.40;;
63259;SDS011;49390;51.380;0.098;2023-02-28T16:41:20;5.47;;;2.58;;
63259;SDS011;49390;51.380;0.098;2023-02-28T16:43:51;3.95;;;2.25;;
63259;SDS011;49390;51.380;0.098;2023-02-28T16:46:21;5.05;;;2.50;;
63259;SDS011;49390;51.380;0.098;2023-02-28T16:48:50;3.80;;;2.33;;
63259;SDS011;49390;51.380;0.098;2023-02-28T16:51:18;4.75;;;2.42;;
63259;SDS011;49390;51.380;0.098;2023-02-28T16:53:46;3.53;;;2.25;;
63259;SDS011;49390;51.380;0.098;2023-02-28T16:56:24;4.70;;;2.38;;
63259;SDS011;49390;51.380;0.098;2023-02-28T16:58:52;4.60;;;2.47;;
63259;SDS011;49390;51.380;0.098;2023-02-28T17:01:25;3.97;;;2.60;;
63259;SDS011;49390;51.380;0.098;2023-02-28T17:03:55;4.85;;;2.55;;
63259;SDS011;49390;51.380;0.098;2023-02-28T17:06:24;8.02;;;2.88;;
63259;SDS011;49390;51.380;0.098;2023-02-28T17:08:57;3.30;;;2.08;;
63259;SDS011;49390;51.380;0.098;2023-02-28T17:11:27;5.47;;;2.80;;
63259;SDS011;49390;51.380;0.098;2023-02-28T17:13:55;6.32;;;2.78;;
63259;SDS011;49390;51.380;0.098;2023-02-28T17:16:30;5.72;;;2.65;;
63259;SDS011;49390;51.380;0.098;2023-02-28T17:19:02;5.15;;;2.70;;
63259;SDS011;49390;51.380;0.098;2023-02-28T17:21:32;4.85;;;2.50;;
63259;SDS011;49390;51.380;0.098;2023-02-28T17:24:00;4.80;;;2.60;;
63259;SDS011;49390;51.380;0.098;2023-02-28T17:26:28;5.68;;;2.80;;
63259;SDS011;49390;51.380;0.098;2023-02-28T17:28:57;5.47;;;3.08;;
63259;SDS011;49390;51.380;0.098;2023-02-28T17:31:27;5.38;;;3.03;;
63259;SDS011;49390;51.380;0.098;2023-02-28T17:33:56;5.40;;;2.65;;
63259;SDS011;49390;51.380;0.098;2023-02-28T17:36:25;3.47;;;2.30;;
63259;SDS011;49390;51.380;0.098;2023-02-28T17:38:54;4.45;;;2.60;;
63259;SDS011;49390;51.380;0.098;2023-02-28T17:41:23;4.13;;;2.22;;
63259;SDS011;49390;51.380;0.098;2023-02-28T17:43:53;5.10;;;2.90;;
63259;SDS011;49390;51.380;0.098;2023-02-28T17:46:22;6.13;;;2.70;;
63259;SDS011;49390;51.380;0.098;2023-02-28T17:48:55;3.92;;;2.50;;
63259;SDS011;49390;51.380;0.098;2023-02-28T17:51:34;6.28;;;2.50;;
63259;SDS011;49390;51.380;0.098;2023-02-28T17:54:02;6.32;;;2.80;;
63259;SDS011;49390;51.380;0.098;2023-02-28T17:56:31;4.00;;;2.45;;
63259;SDS011;49390;51.380;0.098;2023-02-28T17:58:59;4.60;;;2.50;;